sensor_id;sensor_type;location;lat;lon;timestamp;P1;durP1;ratioP1;P2;durP2;ratioP2
2652;SDS011;1336;48.692;9.144;2023-02-01T06:00:45;3.43;;;3.13;;
2652;SDS011;1336;48.692;9.144;2023-02-01T06:01:36;3.97;;;3.40;;
2652;SDS011;1336;48.692;9.144;2023-02-01T06:02:27;3.80;;;3.40;;
2652;SDS011;1336;48.692;9.144;2023-02-01T06:03:19;3.25;;;2.95;;
2652;SDS011;1336;48.692;9.144;2023-02-01T06:04:09;3.90;;;3.60;;
2652;SDS011;1336;48.692;9.144;2023-02-01T06:05:01;3.95;;;3.60;;
2652;SDS011;1336;48.692;9.144;2023-02-01T06:05:52;5.97;;;3.50;;
2652;SDS011;1336;48.692;9.144;2023-02-01T06:06:44;7.78;;;5.78;;
2652;SDS011;1336;48.692;9.144;2023-02-01T06:07:35;8.37;;;5.83;;
2652;SDS011;1336;48.692;9.144;2023-02-01T06:08:27;4.40;;;3.95;;
2652;SDS011;1336;48.692;9.144;2023-02-01T06:09:17;5.67;;;3.93;;
2652;SDS011;1336;48.692;9.144;2023-02-01T06:10:09;2.85;;;2.65;;
2652;SDS011;1336;48.692;9.144;2023-02-01T06:11:01;4.18;;;3.17;;
2652;SDS011;1336;48.692;9.144;2023-02-01T06:11:53;3.50;;;3.20;;
2652;SDS011;1336;48.692;9.144;2023-02-01T06:12:44;4.07;;;3.07;;
2652;SDS011;1336;48.692;9.144;2023-02-01T06:13:36;3.67;;;3.38;;
2652;SDS011;1336;48.692;9.144;2023-02-01T06:14:28;2.80;;;2.53;;
2652;SDS011;1336;48.692;9.144;2023-02-01T06:15:20;2.83;;;2.63;;
2652;SDS011;1336;48.692;9.144;2023-02-01T06:16:12;3.20;;;2.90;;
2652;SDS011;1336;48.692;9.144;2023-02-01T06:17:05;5.22;;;3.28;;
2652;SDS011;1336;48.692;9.144;2023-02-01T06:17:56;3.38;;;3.08;;
2652;SDS011;1336;48.692;9.144;2023-02-01T06:18:48;3.40;;;3.10;;
2652;SDS011;1336;48.692;9.144;2023-02-01T06:19:39;6.07;;;2.93;;
2652;SDS011;1336;48.692;9.144;2023-02-01T06:20:31;4.22;;;3.40;;
2652;SDS011;1336;48.692;9.144;2023-02-01T06:21:22;3.33;;;3.10;;
2652;SDS011;1336;48.692;9.144;2023-02-01T06:22:14;3.35;;;2.80;;
2652;SDS011;1336;48.692;9.144;2023-02-01T06:23:05;3.00;;;2.80;;
2652;SDS011;1336;48.692;9.144;2023-02-01T06:23:56;3.65;;;3.35;;
2652;SDS011;1336;48.692;9.144;2023-02-01T06:24:48;3.50;;;3.20;;
2652;SDS011;1336;48.692;9.144;2023-02-01T06:25:39;3.80;;;3.20;;
2652;SDS011;1336;48.692;9.144;2023-02-01T06:26:30;3.60;;;3.30;;
2652;SDS011;1336;48.692;9.144;2023-02-01T06:27:23;4.10;;;3.70;;
2652;SDS011;1336;48.692;9.144;2023-02-01T06:28:13;5.10;;;3.87;;
2652;SDS011;1336;48.692;9.144;2023-02-01T06:29:05;3.30;;;3.03;;
2652;SDS011;1336;48.692;9.144;2023-02-01T06:29:56;3.15;;;2.90;;
2652;SDS011;1336;48.692;9.144;2023-02-01T06:30:48;3.28;;;3.05;;
2652;SDS011;1336;48.692;9.144;2023-02-01T06:31:40;3.43;;;3.13;;
2652;SDS011;1336;48.692;9.144;2023-02-01T06:32:32;4.13;;;3.08;;
2652;SDS011;1336;48.692;9.144;2023-02-01T06:33:23;3.57;;;3.10;;
2652;SDS011;1336;48.692;9.144;2023-02-01T06:34:15;3.50;;;3.20;;
2652;SDS011;1336;48.692;9.144;2023-02-01T06:35:06;3.90;;;3.53;;
2652;SDS011;1336;48.692;9.144;2023-02-01T06:36:01;3.70;;;3.40;;
2652;SDS011;1336;48.692;9.144;2023-02-01T06:36:54;3.97;;;3.33;;
2652;SDS011;1336;48.692;9.144;2023-02-01T06:37:46;4.88;;;4.05;;
2652;SDS011;1336;48.692;9.144;2023-02-01T06:38:36;4.30;;;3.73;;
2652;SDS011;1336;48.692;9.144;2023-02-01T06:39:28;4.05;;;3.75;;
2652;SDS011;1336;48.692;9.144;2023-02-01T06:40:19;4.40;;;3.97;;
2652;SDS011;1336;48.692;9.144;2023-02-01T06:41:11;4.38;;;3.97;;
2652;SDS011;1336;48.692;9.144;2023-02-01T06:42:02;4.70;;;4.20;;
2652;SDS011;1336;48.692;9.144;2023-02-01T06:42:53;5.25;;;4.22;;
2652;SDS011;1336;48.692;9.144;2023-02-01T06:43:44;7.60;;;4.63;;
2652;SDS011;1336;48.692;9.144;2023-02-01T06:44:36;7.00;;;4.65;;
2652;SDS011;1336;48.692;9.144;2023-02-01T06:45:27;4.20;;;3.80;;
2652;SDS011;1336;48.692;9.144;2023-02-01T06:46:18;5.63;;;3.90;;
2652;SDS011;1336;48.692;9.144;2023-02-01T06:47:10;4.80;;;4.10;;
2652;SDS011;1336;48.692;9.144;2023-02-01T06:48:02;3.70;;;3.40;;
2652;SDS011;1336;48.692;9.144;2023-02-01T06:48:53;4.33;;;3.90;;
2652;SDS011;1336;48.692;9.144;2023-02-01T06:49:45;5.63;;;3.30;;
2652;SDS011;1336;48.692;9.144;2023-02-01T06:50:36;4.00;;;3.70;;
2652;SDS011;1336;48.692;9.144;2023-02-01T06:51:28;3.53;;;3.22;;
2652;SDS011;1336;48.692;9.144;2023-02-01T06:52:20;4.80;;;4.03;;
2652;SDS011;1336;48.692;9.144;2023-02-01T06:53:11;3.43;;;3.13;;
2652;SDS011;1336;48.692;9.144;2023-02-01T06:54:01;5.13;;;3.20;;
2652;SDS011;1336;48.692;9.144;2023-02-01T06:54:53;2.97;;;2.72;;
2652;SDS011;1336;48.692;9.144;2023-02-01T06:55:50;4.27;;;3.63;;
2652;SDS011;1336;48.692;9.144;2023-02-01T06:56:43;3.75;;;3.30;;
2652;SDS011;1336;48.692;9.144;2023-02-01T06:57:33;3.90;;;3.50;;
2652;SDS011;1336;48.692;9.144;2023-02-01T06:58:27;3.70;;;3.40;;
2652;SDS011;1336;48.692;9.144;2023-02-01T06:59:19;3.15;;;2.85;;
2652;SDS011;1336;48.692;9.144;2023-02-01T07:00:11;4.05;;;3.55;;
2652;SDS011;1336;48.692;9.144;2023-02-01T07:01:04;3.25;;;2.95;;
2652;SDS011;1336;48.692;9.144;2023-02-01T07:01:56;3.40;;;3.10;;
2652;SDS011;1336;48.692;9.144;2023-02-01T07:02:49;3.13;;;2.83;;
2652;SDS011;1336;48.692;9.144;2023-02-01T07:03:42;3.30;;;3.00;;
2652;SDS011;1336;48.692;9.144;2023-02-01T07:04:33;3.20;;;2.90;;
2652;SDS011;1336;48.692;9.144;2023-02-01T07:05:24;3.53;;;2.90;;
2652;SDS011;1336;48.692;9.144;2023-02-01T07:06:15;3.17;;;2.90;;
2652;SDS011;1336;48.692;9.144;2023-02-01T07:07:07;3.08;;;2.65;;
2652;SDS011;1336;48.692;9.144;2023-02-01T07:07:58;3.30;;;3.00;;
2652;SDS011;1336;48.692;9.144;2023-02-01T07:08:49;3.08;;;2.88;;
2652;SDS011;1336;48.692;9.144;2023-02-01T07:09:40;3.47;;;2.80;;
2652;SDS011;1336;48.692;9.144;2023-02-01T07:10:33;3.33;;;2.80;;
2652;SDS011;1336;48.692;9.144;2023-02-01T07:11:24;3.15;;;2.80;;
2652;SDS011;1336;48.692;9.144;2023-02-01T07:12:18;3.88;;;2.78;;
2652;SDS011;1336;48.692;9.144;2023-02-01T07:13:09;2.60;;;2.40;;
2652;SDS011;1336;48.692;9.144;2023-02-01T07:14:00;4.85;;;3.15;;
2652;SDS011;1336;48.692;9.144;2023-02-01T07:14:51;3.30;;;2.90;;
2652;SDS011;1336;48.692;9.144;2023-02-01T07:15:43;3.20;;;2.80;;
2652;SDS011;1336;48.692;9.144;2023-02-01T07:16:34;2.83;;;2.30;;
2652;SDS011;1336;48.692;9.144;2023-02-01T07:17:25;2.72;;;2.53;;
2652;SDS011;1336;48.692;9.144;2023-02-01T07:18:17;2.70;;;2.50;;
2652;SDS011;1336;48.692;9.144;2023-02-01T07:19:09;2.63;;;2.40;;
2652;SDS011;1336;48.692;9.144;2023-02-01T07:20:01;2.75;;;2.55;;
2652;SDS011;1336;48.692;9.144;2023-02-01T07:20:52;3.40;;;2.63;;
2652;SDS011;1336;48.692;9.144;2023-02-01T07:21:43;3.42;;;3.00;;
2652;SDS011;1336;48.692;9.144;2023-02-01T07:22:34;2.60;;;2.40;;
2652;SDS011;1336;48.692;9.144;2023-02-01T07:23:26;3.28;;;3.00;;
2652;SDS011;1336;48.692;9.144;2023-02-01T07:24:17;2.42;;;2.20;;
2652;SDS011;1336;48.692;9.144;2023-02-01T07:25:09;3.25;;;2.58;;
2652;SDS011;1336;48.692;9.144;2023-02-01T07:26:00;3.20;;;2.90;;
2652;SDS011;1336;48.692;9.144;2023-02-01T07:26:53;3.13;;;2.92;;
2652;SDS011;1336;48.692;9.144;2023-02-01T07:27:44;2.87;;;2.63;;
2652;SDS011;1336;48.692;9.144;2023-02-01T07:28:36;2.55;;;2.35;;
2652;SDS011;1336;48.692;9.144;2023-02-01T07:29:27;2.83;;;2.63;;
2652;SDS011;1336;48.692;9.144;2023-02-01T07:30:19;3.65;;;2.80;;
2652;SDS011;1336;48.692;9.144;2023-02-01T07:31:10;4.70;;;2.83;;
2652;SDS011;1336;48.692;9.144;2023-02-01T07:32:08;3.65;;;2.63;;
2652;SDS011;1336;48.692;9.144;2023-02-01T07:32:59;2.78;;;2.58;;
2652;SDS011;1336;48.692;9.144;2023-02-01T07:33:52;2.92;;;2.30;;
2652;SDS011;1336;48.692;9.144;2023-02-01T07:34:43;4.30;;;2.90;;
2652;SDS011;1336;48.692;9.144;2023-02-01T07:35:34;2.85;;;2.65;;
2652;SDS011;1336;48.692;9.144;2023-02-01T07:36:25;3.97;;;2.60;;
2652;SDS011;1336;48.692;9.144;2023-02-01T07:37:17;2.92;;;2.60;;
2652;SDS011;1336;48.692;9.144;2023-02-01T07:38:08;4.38;;;2.60;;
2652;SDS011;1336;48.692;9.144;2023-02-01T07:39:00;2.65;;;2.40;;
2652;SDS011;1336;48.692;9.144;2023-02-01T07:39:50;2.80;;;2.50;;
2652;SDS011;1336;48.692;9.144;2023-02-01T07:40:42;2.97;;;2.15;;
2652;SDS011;1336;48.692;9.144;2023-02-01T07:41:33;3.40;;;3.10;;
2652;SDS011;1336;48.692;9.144;2023-02-01T07:42:25;2.50;;;2.30;;
2652;SDS011;1336;48.692;9.144;2023-02-01T07:43:15;3.20;;;2.87;;
2652;SDS011;1336;48.692;9.144;2023-02-01T07:44:07;3.03;;;2.70;;
2652;SDS011;1336;48.692;9.144;2023-02-01T07:44:59;3.72;;;2.75;;
2652;SDS011;1336;48.692;9.144;2023-02-01T07:45:51;3.45;;;2.65;;
2652;SDS011;1336;48.692;9.144;2023-02-01T07:46:43;3.30;;;2.53;;
2652;SDS011;1336;48.692;9.144;2023-02-01T07:47:34;2.77;;;2.57;;
2652;SDS011;1336;48.692;9.144;2023-02-01T07:48:26;2.78;;;2.53;;
2652;SDS011;1336;48.692;9.144;2023-02-01T07:49:18;3.28;;;2.95;;
2652;SDS011;1336;48.692;9.144;2023-02-01T07:50:10;3.10;;;2.80;;
2652;SDS011;1336;48.692;9.144;2023-02-01T07:51:06;3.65;;;2.30;;
2652;SDS011;1336;48.692;9.144;2023-02-01T07:51:59;3.53;;;2.60;;
2652;SDS011;1336;48.692;9.144;2023-02-01T07:52:50;4.25;;;2.67;;
2652;SDS011;1336;48.692;9.144;2023-02-01T07:53:43;3.00;;;2.55;;
2652;SDS011;1336;48.692;9.144;2023-02-01T07:54:35;3.17;;;2.70;;
2652;SDS011;1336;48.692;9.144;2023-02-01T07:55:26;3.30;;;2.80;;
2652;SDS011;1336;48.692;9.144;2023-02-01T07:56:19;2.40;;;2.20;;
2652;SDS011;1336;48.692;9.144;2023-02-01T07:57:10;2.88;;;2.45;;
2652;SDS011;1336;48.692;9.144;2023-02-01T07:58:03;3.40;;;3.05;;
2652;SDS011;1336;48.692;9.144;2023-02-01T07:58:54;2.77;;;2.47;;
2652;SDS011;1336;48.692;9.144;2023-02-01T07:59:46;2.80;;;2.45;;
2652;SDS011;1336;48.692;9.144;2023-02-01T08:00:52;3.90;;;2.72;;
2652;SDS011;1336;48.692;9.144;2023-02-01T08:02:02;4.07;;;2.50;;
2652;SDS011;1336;48.692;9.144;2023-02-01T08:02:53;3.15;;;2.60;;
2652;SDS011;1336;48.692;9.144;2023-02-01T08:03:44;2.93;;;2.73;;
2652;SDS011;1336;48.692;9.144;2023-02-01T08:04:37;2.80;;;2.30;;
2652;SDS011;1336;48.692;9.144;2023-02-01T08:05:28;3.30;;;2.28;;
2652;SDS011;1336;48.692;9.144;2023-02-01T08:06:20;2.25;;;2.05;;
2652;SDS011;1336;48.692;9.144;2023-02-01T08:07:12;3.35;;;2.60;;
2652;SDS011;1336;48.692;9.144;2023-02-01T08:08:04;2.92;;;2.50;;
2652;SDS011;1336;48.692;9.144;2023-02-01T08:08:55;3.15;;;2.50;;
2652;SDS011;1336;48.692;9.144;2023-02-01T08:09:47;2.88;;;2.67;;
2652;SDS011;1336;48.692;9.144;2023-02-01T08:10:38;4.53;;;2.73;;
2652;SDS011;1336;48.692;9.144;2023-02-01T08:11:30;3.17;;;2.67;;
2652;SDS011;1336;48.692;9.144;2023-02-01T08:12:22;2.50;;;2.30;;
2652;SDS011;1336;48.692;9.144;2023-02-01T08:13:13;3.00;;;2.70;;
2652;SDS011;1336;48.692;9.144;2023-02-01T08:14:05;2.42;;;2.10;;
2652;SDS011;1336;48.692;9.144;2023-02-01T08:14:57;2.53;;;2.30;;
2652;SDS011;1336;48.692;9.144;2023-02-01T08:15:47;2.90;;;2.60;;
2652;SDS011;1336;48.692;9.144;2023-02-01T08:16:39;5.28;;;2.80;;
2652;SDS011;1336;48.692;9.144;2023-02-01T08:17:31;3.15;;;2.25;;
2652;SDS011;1336;48.692;9.144;2023-02-01T08:18:21;2.63;;;2.43;;
2652;SDS011;1336;48.692;9.144;2023-02-01T08:19:13;4.75;;;2.40;;
2652;SDS011;1336;48.692;9.144;2023-02-01T08:20:07;2.63;;;2.42;;
2652;SDS011;1336;48.692;9.144;2023-02-01T08:21:02;2.70;;;2.38;;
2652;SDS011;1336;48.692;9.144;2023-02-01T08:21:55;2.83;;;2.58;;
2652;SDS011;1336;48.692;9.144;2023-02-01T08:22:45;3.83;;;2.63;;
2652;SDS011;1336;48.692;9.144;2023-02-01T08:23:37;3.95;;;2.50;;
2652;SDS011;1336;48.692;9.144;2023-02-01T08:24:29;2.45;;;2.25;;
2652;SDS011;1336;48.692;9.144;2023-02-01T08:25:21;3.67;;;2.90;;
2652;SDS011;1336;48.692;9.144;2023-02-01T08:26:14;4.55;;;2.35;;
2652;SDS011;1336;48.692;9.144;2023-02-01T08:27:07;4.05;;;2.50;;
2652;SDS011;1336;48.692;9.144;2023-02-01T08:27:58;3.83;;;2.77;;
2652;SDS011;1336;48.692;9.144;2023-02-01T08:28:51;3.08;;;2.45;;
2652;SDS011;1336;48.692;9.144;2023-02-01T08:29:43;2.67;;;2.20;;
2652;SDS011;1336;48.692;9.144;2023-02-01T08:30:36;4.35;;;3.00;;
2652;SDS011;1336;48.692;9.144;2023-02-01T08:31:27;4.28;;;2.47;;
2652;SDS011;1336;48.692;9.144;2023-02-01T08:32:20;3.08;;;2.78;;
2652;SDS011;1336;48.692;9.144;2023-02-01T08:33:10;3.40;;;2.27;;
2652;SDS011;1336;48.692;9.144;2023-02-01T08:34:02;4.43;;;2.78;;
2652;SDS011;1336;48.692;9.144;2023-02-01T08:34:54;3.95;;;2.30;;
2652;SDS011;1336;48.692;9.144;2023-02-01T08:35:47;3.67;;;2.58;;
2652;SDS011;1336;48.692;9.144;2023-02-01T08:36:37;2.65;;;2.28;;
2652;SDS011;1336;48.692;9.144;2023-02-01T08:37:30;5.68;;;2.95;;
2652;SDS011;1336;48.692;9.144;2023-02-01T08:38:21;4.43;;;2.75;;
2652;SDS011;1336;48.692;9.144;2023-02-01T08:39:13;2.88;;;2.17;;
2652;SDS011;1336;48.692;9.144;2023-02-01T08:40:05;5.05;;;2.63;;
2652;SDS011;1336;48.692;9.144;2023-02-01T08:41:03;3.38;;;2.50;;
2652;SDS011;1336;48.692;9.144;2023-02-01T08:41:55;5.38;;;3.13;;
2652;SDS011;1336;48.692;9.144;2023-02-01T08:43:04;4.07;;;2.70;;
2652;SDS011;1336;48.692;9.144;2023-02-01T08:43:56;3.63;;;2.45;;
2652;SDS011;1336;48.692;9.144;2023-02-01T08:44:47;3.50;;;2.85;;
2652;SDS011;1336;48.692;9.144;2023-02-01T08:45:39;3.60;;;2.42;;
2652;SDS011;1336;48.692;9.144;2023-02-01T08:46:30;3.80;;;2.90;;
2652;SDS011;1336;48.692;9.144;2023-02-01T08:47:22;6.40;;;4.35;;
2652;SDS011;1336;48.692;9.144;2023-02-01T08:48:12;2.87;;;2.67;;
2652;SDS011;1336;48.692;9.144;2023-02-01T08:49:04;2.97;;;2.22;;
2652;SDS011;1336;48.692;9.144;2023-02-01T08:49:55;4.97;;;2.40;;
2652;SDS011;1336;48.692;9.144;2023-02-01T08:50:48;5.45;;;2.70;;
2652;SDS011;1336;48.692;9.144;2023-02-01T08:51:39;2.80;;;2.50;;
2652;SDS011;1336;48.692;9.144;2023-02-01T08:52:30;4.25;;;3.40;;
2652;SDS011;1336;48.692;9.144;2023-02-01T08:53:21;3.30;;;3.00;;
2652;SDS011;1336;48.692;9.144;2023-02-01T08:54:13;3.58;;;2.50;;
2652;SDS011;1336;48.692;9.144;2023-02-01T08:55:04;7.50;;;3.20;;
2652;SDS011;1336;48.692;9.144;2023-02-01T08:55:56;4.57;;;3.38;;
2652;SDS011;1336;48.692;9.144;2023-02-01T08:56:48;3.90;;;3.17;;
2652;SDS011;1336;48.692;9.144;2023-02-01T08:57:39;5.00;;;3.63;;
2652;SDS011;1336;48.692;9.144;2023-02-01T08:58:31;3.65;;;3.03;;
2652;SDS011;1336;48.692;9.144;2023-02-01T08:59:22;3.90;;;2.80;;
2652;SDS011;1336;48.692;9.144;2023-02-01T09:00:15;6.22;;;3.03;;
2652;SDS011;1336;48.692;9.144;2023-02-01T09:01:08;3.72;;;2.50;;
2652;SDS011;1336;48.692;9.144;2023-02-01T09:02:02;3.92;;;2.60;;
2652;SDS011;1336;48.692;9.144;2023-02-01T09:02:53;4.77;;;3.27;;
2652;SDS011;1336;48.692;9.144;2023-02-01T09:03:45;3.88;;;3.08;;
2652;SDS011;1336;48.692;9.144;2023-02-01T09:04:35;6.90;;;3.20;;
2652;SDS011;1336;48.692;9.144;2023-02-01T09:05:27;3.20;;;2.60;;
2652;SDS011;1336;48.692;9.144;2023-02-01T09:06:20;2.97;;;2.67;;
2652;SDS011;1336;48.692;9.144;2023-02-01T09:07:12;4.28;;;2.53;;
2652;SDS011;1336;48.692;9.144;2023-02-01T09:08:03;4.10;;;2.40;;
2652;SDS011;1336;48.692;9.144;2023-02-01T09:08:55;5.32;;;2.55;;
2652;SDS011;1336;48.692;9.144;2023-02-01T09:09:46;4.90;;;2.90;;
2652;SDS011;1336;48.692;9.144;2023-02-01T09:10:38;4.05;;;2.60;;
2652;SDS011;1336;48.692;9.144;2023-02-01T09:11:29;3.47;;;2.80;;
2652;SDS011;1336;48.692;9.144;2023-02-01T09:12:21;6.78;;;3.10;;
2652;SDS011;1336;48.692;9.144;2023-02-01T09:13:12;3.75;;;2.05;;
2652;SDS011;1336;48.692;9.144;2023-02-01T09:14:04;6.72;;;2.50;;
2652;SDS011;1336;48.692;9.144;2023-02-01T09:14:55;3.00;;;2.43;;
2652;SDS011;1336;48.692;9.144;2023-02-01T09:15:50;5.22;;;2.53;;
2652;SDS011;1336;48.692;9.144;2023-02-01T09:16:41;2.60;;;2.30;;
2652;SDS011;1336;48.692;9.144;2023-02-01T09:17:32;2.53;;;2.30;;
2652;SDS011;1336;48.692;9.144;2023-02-01T09:18:23;3.67;;;2.90;;
2652;SDS011;1336;48.692;9.144;2023-02-01T09:19:15;3.17;;;2.63;;
2652;SDS011;1336;48.692;9.144;2023-02-01T09:20:06;5.70;;;2.53;;
2652;SDS011;1336;48.692;9.144;2023-02-01T09:21:03;4.30;;;3.05;;
2652;SDS011;1336;48.692;9.144;2023-02-01T09:21:56;2.83;;;2.33;;
2652;SDS011;1336;48.692;9.144;2023-02-01T09:22:47;4.32;;;2.72;;
2652;SDS011;1336;48.692;9.144;2023-02-01T09:23:39;4.45;;;2.70;;
2652;SDS011;1336;48.692;9.144;2023-02-01T09:24:30;5.40;;;2.42;;
2652;SDS011;1336;48.692;9.144;2023-02-01T09:25:22;5.15;;;2.35;;
2652;SDS011;1336;48.692;9.144;2023-02-01T09:26:13;3.17;;;2.37;;
2652;SDS011;1336;48.692;9.144;2023-02-01T09:27:05;6.05;;;2.80;;
2652;SDS011;1336;48.692;9.144;2023-02-01T09:27:55;3.03;;;2.30;;
2652;SDS011;1336;48.692;9.144;2023-02-01T09:28:47;4.38;;;2.60;;
2652;SDS011;1336;48.692;9.144;2023-02-01T09:29:38;2.50;;;2.13;;
2652;SDS011;1336;48.692;9.144;2023-02-01T09:30:29;4.22;;;2.63;;
2652;SDS011;1336;48.692;9.144;2023-02-01T09:31:20;4.20;;;2.80;;
2652;SDS011;1336;48.692;9.144;2023-02-01T09:32:12;5.32;;;2.47;;
2652;SDS011;1336;48.692;9.144;2023-02-01T09:33:04;4.28;;;2.90;;
2652;SDS011;1336;48.692;9.144;2023-02-01T09:33:54;2.97;;;2.33;;
2652;SDS011;1336;48.692;9.144;2023-02-01T09:34:46;6.72;;;2.63;;
2652;SDS011;1336;48.692;9.144;2023-02-01T09:35:37;3.30;;;2.27;;
2652;SDS011;1336;48.692;9.144;2023-02-01T09:36:29;6.30;;;2.30;;
2652;SDS011;1336;48.692;9.144;2023-02-01T09:37:21;4.43;;;2.35;;
2652;SDS011;1336;48.692;9.144;2023-02-01T09:38:13;4.82;;;2.58;;
2652;SDS011;1336;48.692;9.144;2023-02-01T09:39:03;4.83;;;2.53;;
2652;SDS011;1336;48.692;9.144;2023-02-01T09:39:55;3.85;;;2.65;;
2652;SDS011;1336;48.692;9.144;2023-02-01T09:40:47;2.80;;;2.20;;
2652;SDS011;1336;48.692;9.144;2023-02-01T09:41:41;4.80;;;2.73;;
2652;SDS011;1336;48.692;9.144;2023-02-01T09:42:51;3.55;;;2.83;;
2652;SDS011;1336;48.692;9.144;2023-02-01T09:44:02;3.40;;;2.70;;
2652;SDS011;1336;48.692;9.144;2023-02-01T09:45:01;2.60;;;2.28;;
2652;SDS011;1336;48.692;9.144;2023-02-01T09:46:03;4.10;;;2.42;;
2652;SDS011;1336;48.692;9.144;2023-02-01T09:47:09;6.53;;;2.63;;
2652;SDS011;1336;48.692;9.144;2023-02-01T09:48:02;5.05;;;2.22;;
2652;SDS011;1336;48.692;9.144;2023-02-01T09:49:03;3.67;;;2.40;;
2652;SDS011;1336;48.692;9.144;2023-02-01T09:50:00;4.07;;;2.85;;
2652;SDS011;1336;48.692;9.144;2023-02-01T09:50:56;2.50;;;2.30;;
2652;SDS011;1336;48.692;9.144;2023-02-01T09:51:49;3.17;;;2.50;;
2652;SDS011;1336;48.692;9.144;2023-02-01T09:52:45;4.60;;;2.80;;
2652;SDS011;1336;48.692;9.144;2023-02-01T09:53:43;3.38;;;2.50;;
2652;SDS011;1336;48.692;9.144;2023-02-01T09:54:41;3.38;;;2.65;;
2652;SDS011;1336;48.692;9.144;2023-02-01T09:55:38;3.15;;;2.65;;
2652;SDS011;1336;48.692;9.144;2023-02-01T09:56:34;5.57;;;2.70;;
2652;SDS011;1336;48.692;9.144;2023-02-01T09:57:34;3.22;;;2.53;;
2652;SDS011;1336;48.692;9.144;2023-02-01T09:58:33;5.68;;;2.80;;
2652;SDS011;1336;48.692;9.144;2023-02-01T09:59:29;4.60;;;2.70;;
2652;SDS011;1336;48.692;9.144;2023-02-01T10:00:25;5.70;;;2.72;;
2652;SDS011;1336;48.692;9.144;2023-02-01T10:01:21;7.90;;;3.65;;
2652;SDS011;1336;48.692;9.144;2023-02-01T10:02:14;5.00;;;2.70;;
2652;SDS011;1336;48.692;9.144;2023-02-01T10:03:10;4.15;;;2.60;;
2652;SDS011;1336;48.692;9.144;2023-02-01T10:04:04;5.00;;;2.75;;
2652;SDS011;1336;48.692;9.144;2023-02-01T10:04:59;7.40;;;2.83;;
2652;SDS011;1336;48.692;9.144;2023-02-01T10:05:57;3.97;;;2.40;;
2652;SDS011;1336;48.692;9.144;2023-02-01T10:07:10;3.35;;;2.28;;
2652;SDS011;1336;48.692;9.144;2023-02-01T10:08:15;4.68;;;2.30;;
2652;SDS011;1336;48.692;9.144;2023-02-01T10:09:19;5.40;;;2.10;;
2652;SDS011;1336;48.692;9.144;2023-02-01T10:10:21;3.95;;;2.58;;
2652;SDS011;1336;48.692;9.144;2023-02-01T10:11:21;5.22;;;2.40;;
2652;SDS011;1336;48.692;9.144;2023-02-01T10:12:33;3.17;;;2.38;;
2652;SDS011;1336;48.692;9.144;2023-02-01T10:13:39;2.80;;;2.50;;
2652;SDS011;1336;48.692;9.144;2023-02-01T10:14:46;7.95;;;2.63;;
2652;SDS011;1336;48.692;9.144;2023-02-01T10:15:51;2.80;;;2.13;;
2652;SDS011;1336;48.692;9.144;2023-02-01T10:16:55;7.00;;;2.45;;
2652;SDS011;1336;48.692;9.144;2023-02-01T10:17:55;6.20;;;2.42;;
2652;SDS011;1336;48.692;9.144;2023-02-01T10:19:05;4.50;;;2.00;;
2652;SDS011;1336;48.692;9.144;2023-02-01T10:20:11;3.67;;;2.53;;
2652;SDS011;1336;48.692;9.144;2023-02-01T10:21:09;3.10;;;2.10;;
2652;SDS011;1336;48.692;9.144;2023-02-01T10:22:08;3.83;;;2.53;;
2652;SDS011;1336;48.692;9.144;2023-02-01T10:23:03;5.20;;;2.65;;
2652;SDS011;1336;48.692;9.144;2023-02-01T10:24:11;4.57;;;2.67;;
2652;SDS011;1336;48.692;9.144;2023-02-01T10:25:17;4.00;;;2.90;;
2652;SDS011;1336;48.692;9.144;2023-02-01T10:26:17;6.38;;;2.58;;
2652;SDS011;1336;48.692;9.144;2023-02-01T10:27:12;6.88;;;2.65;;
2652;SDS011;1336;48.692;9.144;2023-02-01T10:28:06;4.47;;;2.53;;
2652;SDS011;1336;48.692;9.144;2023-02-01T10:29:04;4.38;;;2.45;;
2652;SDS011;1336;48.692;9.144;2023-02-01T10:30:12;6.53;;;2.75;;
2652;SDS011;1336;48.692;9.144;2023-02-01T10:31:09;4.70;;;2.58;;
2652;SDS011;1336;48.692;9.144;2023-02-01T10:32:00;4.17;;;2.53;;
2652;SDS011;1336;48.692;9.144;2023-02-01T10:32:54;4.47;;;2.47;;
2652;SDS011;1336;48.692;9.144;2023-02-01T10:34:06;8.75;;;2.47;;
2652;SDS011;1336;48.692;9.144;2023-02-01T10:35:09;8.57;;;3.08;;
2652;SDS011;1336;48.692;9.144;2023-02-01T10:36:05;2.92;;;2.15;;
2652;SDS011;1336;48.692;9.144;2023-02-01T10:37:08;5.00;;;2.65;;
2652;SDS011;1336;48.692;9.144;2023-02-01T10:38:25;5.78;;;2.55;;
2652;SDS011;1336;48.692;9.144;2023-02-01T10:39:19;4.70;;;2.80;;
2652;SDS011;1336;48.692;9.144;2023-02-01T10:40:14;4.47;;;2.90;;
2652;SDS011;1336;48.692;9.144;2023-02-01T10:41:11;4.38;;;2.33;;
2652;SDS011;1336;48.692;9.144;2023-02-01T10:42:04;4.93;;;2.30;;
2652;SDS011;1336;48.692;9.144;2023-02-01T10:42:57;3.78;;;2.55;;
2652;SDS011;1336;48.692;9.144;2023-02-01T10:43:50;5.75;;;2.45;;
2652;SDS011;1336;48.692;9.144;2023-02-01T10:44:48;5.47;;;2.90;;
2652;SDS011;1336;48.692;9.144;2023-02-01T10:45:38;5.83;;;2.80;;
2652;SDS011;1336;48.692;9.144;2023-02-01T10:46:33;3.70;;;2.17;;
2652;SDS011;1336;48.692;9.144;2023-02-01T10:47:24;5.82;;;2.40;;
2652;SDS011;1336;48.692;9.144;2023-02-01T10:48:15;4.20;;;2.28;;
2652;SDS011;1336;48.692;9.144;2023-02-01T10:49:10;6.20;;;3.97;;
2652;SDS011;1336;48.692;9.144;2023-02-01T10:50:14;7.55;;;3.05;;
2652;SDS011;1336;48.692;9.144;2023-02-01T10:51:12;5.50;;;2.25;;
2652;SDS011;1336;48.692;9.144;2023-02-01T10:52:11;6.45;;;2.60;;
2652;SDS011;1336;48.692;9.144;2023-02-01T10:53:06;7.55;;;2.92;;
2652;SDS011;1336;48.692;9.144;2023-02-01T10:54:03;6.57;;;2.75;;
2652;SDS011;1336;48.692;9.144;2023-02-01T10:56:24;6.60;;;2.28;;
2652;SDS011;1336;48.692;9.144;2023-02-01T10:57:20;5.03;;;2.22;;
2652;SDS011;1336;48.692;9.144;2023-02-01T10:58:16;5.43;;;2.20;;
2652;SDS011;1336;48.692;9.144;2023-02-01T10:59:15;6.45;;;2.65;;
2652;SDS011;1336;48.692;9.144;2023-02-01T11:00:18;4.68;;;2.05;;
2652;SDS011;1336;48.692;9.144;2023-02-01T11:01:10;11.20;;;2.92;;
2652;SDS011;1336;48.692;9.144;2023-02-01T11:02:14;5.20;;;2.58;;
2652;SDS011;1336;48.692;9.144;2023-02-01T11:03:20;10.30;;;2.90;;
2652;SDS011;1336;48.692;9.144;2023-02-01T11:04:21;5.95;;;2.00;;
2652;SDS011;1336;48.692;9.144;2023-02-01T11:05:17;9.77;;;2.97;;
2652;SDS011;1336;48.692;9.144;2023-02-01T11:06:10;4.35;;;2.13;;
2652;SDS011;1336;48.692;9.144;2023-02-01T11:07:12;7.53;;;2.55;;
2652;SDS011;1336;48.692;9.144;2023-02-01T11:08:12;9.02;;;2.95;;
2652;SDS011;1336;48.692;9.144;2023-02-01T11:09:10;4.80;;;2.75;;
2652;SDS011;1336;48.692;9.144;2023-02-01T11:10:08;4.97;;;2.30;;
2652;SDS011;1336;48.692;9.144;2023-02-01T11:11:28;7.32;;;2.78;;
2652;SDS011;1336;48.692;9.144;2023-02-01T11:12:22;7.78;;;3.20;;
2652;SDS011;1336;48.692;9.144;2023-02-01T11:13:17;7.40;;;2.97;;
2652;SDS011;1336;48.692;9.144;2023-02-01T11:14:13;6.40;;;2.90;;
2652;SDS011;1336;48.692;9.144;2023-02-01T11:15:13;6.78;;;2.25;;
2652;SDS011;1336;48.692;9.144;2023-02-01T11:16:10;6.13;;;2.35;;
2652;SDS011;1336;48.692;9.144;2023-02-01T11:17:15;5.93;;;2.60;;
2652;SDS011;1336;48.692;9.144;2023-02-01T11:18:14;8.00;;;2.50;;
2652;SDS011;1336;48.692;9.144;2023-02-01T11:19:07;8.35;;;2.90;;
2652;SDS011;1336;48.692;9.144;2023-02-01T11:20:12;9.00;;;2.58;;
2652;SDS011;1336;48.692;9.144;2023-02-01T11:21:05;6.25;;;2.63;;
2652;SDS011;1336;48.692;9.144;2023-02-01T11:21:58;9.05;;;3.25;;
2652;SDS011;1336;48.692;9.144;2023-02-01T11:22:52;8.30;;;3.00;;
2652;SDS011;1336;48.692;9.144;2023-02-01T11:23:45;6.05;;;1.88;;
2652;SDS011;1336;48.692;9.144;2023-02-01T11:24:36;9.23;;;2.70;;
2652;SDS011;1336;48.692;9.144;2023-02-01T11:25:36;11.82;;;2.80;;
2652;SDS011;1336;48.692;9.144;2023-02-01T11:26:29;10.10;;;3.53;;
2652;SDS011;1336;48.692;9.144;2023-02-01T11:27:23;6.43;;;2.45;;
2652;SDS011;1336;48.692;9.144;2023-02-01T11:28:15;6.72;;;2.20;;
2652;SDS011;1336;48.692;9.144;2023-02-01T11:29:10;8.85;;;2.97;;
2652;SDS011;1336;48.692;9.144;2023-02-01T11:30:03;5.85;;;2.60;;
2652;SDS011;1336;48.692;9.144;2023-02-01T11:30:56;6.32;;;2.30;;
2652;SDS011;1336;48.692;9.144;2023-02-01T11:31:50;5.75;;;2.80;;
2652;SDS011;1336;48.692;9.144;2023-02-01T11:32:42;9.77;;;2.50;;
2652;SDS011;1336;48.692;9.144;2023-02-01T11:33:33;7.00;;;2.63;;
2652;SDS011;1336;48.692;9.144;2023-02-01T11:34:31;9.32;;;3.10;;
2652;SDS011;1336;48.692;9.144;2023-02-01T11:35:26;8.02;;;2.58;;
2652;SDS011;1336;48.692;9.144;2023-02-01T11:36:21;7.43;;;2.88;;
2652;SDS011;1336;48.692;9.144;2023-02-01T11:37:17;6.07;;;2.10;;